Time;durP1;ratioP1;P1;durP2;ratioP2;P2;SDS_P1;SDS_P2;PMS_P1;PMS_P2;Temp;Humidity;BMP_temperature;BMP_pressure;BME280_temperature;BME280_humidity;BME280_pressure;Samples;Min_cycle;Max_cycle;Signal;HPM_P1;HPM_P2
2022/04/07 00:03:42;;;;;;;1999.90;999.90;;;;;;;12.27;59.33;99056.38;15598852;28;20067;-63
2022/04/07 00:11:15;;;;;;;1999.90;999.90;;;;;;;12.31;59.25;99044.06;15620421;28;20042;-61
2022/04/07 00:18:47;;;;;;;1999.90;999.90;;;;;;;12.15;59.23;99029.50;15625502;28;20433;-64
2022/04/07 00:26:21;;;;;;;1999.90;999.90;;;;;;;12.09;59.24;99023.47;15608907;28;20037;-63
2022/04/07 00:33:53;;;;;;;1999.90;999.90;;;;;;;11.98;59.49;99010.56;15626665;28;20116;-62
2022/04/07 00:41:27;;;;;;;1999.90;999.90;;;;;;;12.23;59.19;99005.22;15608836;28;20053;-62
2022/04/07 00:48:59;;;;;;;1999.90;999.90;;;;;;;11.98;59.86;98986.19;15610233;28;20120;-62
2022/04/07 00:56:35;;;;;;;1999.90;999.90;;;;;;;11.90;60.24;98976.16;15627394;28;20144;-60
2022/04/07 01:04:07;;;;;;;1999.90;999.90;;;;;;;11.77;60.47;98953.22;15631829;28;20049;-64
2022/04/07 01:11:41;;;;;;;1999.90;999.90;;;;;;;11.67;61.22;98950.31;15611012;28;20045;-63
2022/04/07 01:19:13;;;;;;;1999.90;999.90;;;;;;;11.74;60.94;98942.03;15634480;28;20049;-62
2022/04/07 01:26:47;;;;;;;1999.90;999.90;;;;;;;11.83;60.71;98940.56;15605895;28;20053;-65
2022/04/07 01:34:19;;;;;;;1999.90;999.90;;;;;;;11.61;61.39;98926.72;15658936;28;20045;-63
2022/04/07 01:41:54;;;;;;;1999.90;999.90;;;;;;;11.63;61.73;98916.78;15674760;28;20037;-63
2022/04/07 01:49:27;;;;;;;1999.90;999.90;;;;;;;11.54;62.17;98903.09;15611179;28;20041;-63
2022/04/07 01:57:01;;;;;;;1999.90;999.90;;;;;;;11.57;62.32;98895.97;15603512;28;20037;-63
2022/04/07 02:04:34;;;;;;;1999.90;999.90;;;;;;;11.40;63.05;98893.78;15623667;28;20502;-61
2022/04/07 02:12:08;;;;;;;1999.90;999.90;;;;;;;11.39;63.32;98889.41;15619640;28;20045;-62
2022/04/07 02:19:41;;;;;;;1999.90;999.90;;;;;;;11.19;63.89;98885.97;15604017;28;20037;-62
2022/04/07 02:27:15;;;;;;;1999.90;999.90;;;;;;;11.39;63.70;98883.81;15619129;28;20049;-62
2022/04/07 02:34:48;;;;;;;1999.90;999.90;;;;;;;11.34;63.76;98867.38;15618037;28;20053;-65
2022/04/07 02:42:21;;;;;;;1999.90;999.90;;;;;;;11.24;63.78;98855.72;15628864;28;20065;-62
2022/04/07 02:49:54;;;;;;;1999.90;999.90;;;;;;;11.14;64.31;98850.81;15617889;28;20107;-63
2022/04/07 02:57:30;;;;;;;1999.90;999.90;;;;;;;10.99;65.10;98849.06;15591752;28;20499;-64
2022/04/07 03:05:04;;;;;;;1999.90;999.90;;;;;;;10.86;65.21;98839.34;15617610;28;20410;-62
2022/04/07 03:12:38;;;;;;;1999.90;999.90;;;;;;;10.97;65.06;98826.31;15618758;28;20597;-64
2022/04/07 03:20:11;;;;;;;1999.90;999.90;;;;;;;10.97;65.19;98818.75;15604068;28;20495;-62
2022/04/07 03:27:44;;;;;;;1999.90;999.90;;;;;;;10.91;65.25;98808.31;15619842;28;20068;-64
2022/04/07 03:35:16;;;;;;;;;;;;;;;10.92;65.42;98791.19;15628765;28;20050;-61
2022/04/07 03:42:50;;;;;;;1999.90;999.90;;;;;;;10.97;65.44;98785.28;15616322;28;19921;-62
2022/04/07 03:50:22;;;;;;;1999.90;999.90;;;;;;;11.06;65.31;98786.97;15609692;28;20483;-63
2022/04/07 03:57:57;;;;;;;1999.90;999.90;;;;;;;11.21;65.45;98789.50;15600591;28;20045;-64
2022/04/07 04:05:33;;;;;;;1999.90;999.90;;;;;;;11.08;65.37;98771.44;15623587;28;20550;-65
2022/04/07 04:13:09;;;;;;;1999.90;999.90;;;;;;;11.06;65.68;98748.69;15592228;28;20045;-64
2022/04/07 04:20:41;;;;;;;1999.90;999.90;;;;;;;11.18;65.50;98739.22;15607987;28;20042;-61
2022/04/07 04:28:15;;;;;;;1999.90;999.90;;;;;;;11.18;65.23;98737.22;15618575;28;20041;-64
2022/04/07 04:35:48;;;;;;;1999.90;999.90;;;;;;;11.11;65.60;98719.63;15623938;28;20049;-63
2022/04/07 04:43:21;;;;;;;1999.90;999.90;;;;;;;11.29;65.15;98715.00;15623061;28;20045;-60
2022/04/07 04:51:03;;;;;;;1999.90;999.90;;;;;;;11.12;65.61;98712.84;15622070;28;20108;-63
2022/04/07 04:58:37;;;;;;;1999.90;999.90;;;;;;;11.44;65.20;98688.78;15613107;28;20051;-62
2022/04/07 05:06:09;;;;;;;1999.90;999.90;;;;;;;11.58;64.45;98693.69;15603475;28;20045;-63
2022/04/07 05:13:42;;;;;;;1999.90;999.90;;;;;;;11.32;65.55;98696.66;15625744;28;20490;-61
2022/04/07 05:21:15;;;;;;;1999.90;999.90;;;;;;;11.40;65.37;98679.59;15601499;28;20073;-60
2022/04/07 05:28:48;;;;;;;1999.90;999.90;;;;;;;11.56;65.21;98668.09;15603826;28;20564;-63
2022/04/07 05:36:21;;;;;;;1999.90;999.90;;;;;;;11.67;65.41;98648.63;15620862;28;20440;-63
2022/04/07 05:43:54;;;;;;;1999.90;999.90;;;;;;;11.79;65.16;98646.34;15602687;28;20556;-64
2022/04/07 05:51:26;;;;;;;1999.90;999.90;;;;;;;12.14;64.20;98642.09;15618690;28;20045;-62
2022/04/07 05:59:00;;;;;;;1999.90;999.90;;;;;;;12.16;64.29;98636.91;15619753;28;20058;-62
2022/04/07 06:06:35;;;;;;;1999.90;999.90;;;;;;;12.47;63.48;98638.22;15600939;28;20052;-63
2022/04/07 06:14:10;;;;;;;1999.90;999.90;;;;;;;12.50;63.39;98626.22;15659717;28;20052;-63
2022/04/07 06:21:43;;;;;;;;;;;;;;;12.68;62.09;98615.06;15680186;28;20528;-62
2022/04/07 06:29:16;;;;;;;1999.90;999.90;;;;;;;12.81;61.67;98607.09;15678461;28;19921;-62
2022/04/07 06:36:49;;;;;;;1999.90;999.90;;;;;;;12.93;60.96;98598.31;15644340;28;20045;-63
2022/04/07 06:44:22;;;;;;;1999.90;999.90;;;;;;;13.41;60.26;98593.06;15600103;28;20052;-62
2022/04/07 06:51:54;;;;;;;1999.90;999.90;;;;;;;13.55;59.56;98581.06;15628100;28;20120;-53
2022/04/07 06:59:28;;;;;;;1999.90;999.90;;;;;;;13.61;59.12;98571.00;15626004;28;20037;-57
2022/04/07 07:07:00;;;;;;;;;;;;;;;13.97;57.98;98571.69;15587834;28;20379;-57
2022/04/07 07:14:34;;;;;;;1999.90;999.90;;;;;;;13.91;57.33;98548.09;15615198;28;19921;-59
2022/04/07 07:22:06;;;;;;;;;;;;;;;16.06;52.00;98536.56;15649460;28;20041;-59
2022/04/07 07:29:39;;;;;;;1999.90;999.90;;;;;;;16.58;50.52;98536.22;15698996;28;19925;-60
2022/04/07 07:37:11;;;;;;;1999.90;999.90;;;;;;;15.75;52.18;98518.88;15699070;28;20516;-61
2022/04/07 07:44:45;;;;;;;1999.90;999.90;;;;;;;16.30;51.52;98506.47;15699932;28;20079;-61
2022/04/07 07:52:17;;;;;;;;;;;;;;;17.19;49.09;98480.44;15694049;28;20714;-59
2022/04/07 07:59:53;;;;;;;1999.90;999.90;;;;;;;15.87;52.25;98473.34;15618437;28;19921;-62
2022/04/07 08:07:25;;;;;;;1999.90;999.90;;;;;;;16.23;51.24;98465.16;15618221;28;20041;-60
2022/04/07 08:14:59;;;;;;;1999.90;999.90;;;;;;;16.04;51.56;98465.84;15617100;28;20049;-58
2022/04/07 08:22:31;;;;;;;1999.90;999.90;;;;;;;16.77;49.41;98431.31;15617412;28;20566;-59
2022/04/07 08:30:06;;;;;;;1999.90;999.90;;;;;;;16.53;50.01;98421.28;15615981;28;20383;-61
2022/04/07 08:37:40;;;;;;;1999.90;999.90;;;;;;;17.43;47.84;98407.91;15624178;28;20038;-60
2022/04/07 08:45:20;;;;;;;1999.90;999.90;;;;;;;15.99;50.23;98385.56;15607580;28;20093;-61
2022/04/07 08:52:57;;;;;;;1999.90;999.90;;;;;;;15.68;51.30;98403.72;15618291;28;20040;-62
2022/04/07 09:00:33;;;;;;;1999.90;999.90;;;;;;;15.49;51.99;98391.09;15684963;28;20578;-59
2022/04/07 09:08:07;;;;;;;1999.90;999.90;;;;;;;15.92;51.83;98354.75;15683782;28;20068;-61
2022/04/07 09:15:43;;;;;;;1999.90;999.90;;;;;;;17.19;48.69;98347.22;15683858;28;20414;-61
2022/04/07 09:23:17;;;;;;;1999.90;999.90;;;;;;;17.48;47.51;98303.09;15681776;28;20049;-64
2022/04/07 09:31:00;;;;;;;1999.90;999.90;;;;;;;17.16;48.13;98298.16;15624268;28;20133;-60
2022/04/07 09:38:53;;;;;;;1999.90;999.90;;;;;;;17.42;47.48;98298.41;15668903;28;20053;-60
2022/04/07 09:46:38;;;;;;;;;;;;;;;16.50;50.30;98296.28;15593768;28;20546;-64
2022/04/07 09:54:15;;;;;;;1999.90;999.90;;;;;;;15.97;50.06;98288.81;15607138;28;19991;-62
2022/04/07 10:01:51;;;;;;;1999.90;999.90;;;;;;;16.27;50.51;98251.31;15625471;28;20049;-62
2022/04/07 10:09:27;;;;;;;1999.90;999.90;;;;;;;17.54;47.38;98230.84;15632866;28;20495;-61
2022/04/07 10:17:10;;;;;;;1999.90;999.90;;;;;;;16.40;49.65;98198.78;15612772;28;20055;-63
2022/04/07 10:24:55;;;;;;;1999.90;999.90;;;;;;;16.14;50.21;98178.75;15611878;28;20088;-62
2022/04/07 10:32:37;;;;;;;1999.90;999.90;;;;;;;15.67;50.81;98161.19;15610776;28;20539;-62
2022/04/07 10:40:51;;;;;;;1999.90;999.90;;;;;;;15.94;51.50;98129.34;15588700;28;20058;-63
2022/04/07 10:48:30;;;;;;;1999.90;999.90;;;;;;;14.72;57.83;98099.75;15643969;28;20045;-61
2022/04/07 10:56:08;;;;;;;1999.90;999.90;;;;;;;14.16;58.46;98090.84;15620511;28;20417;-62
2022/04/07 11:03:43;;;;;;;1999.90;999.90;;;;;;;14.76;57.21;98032.31;15620885;28;20116;-61
2022/04/07 11:11:50;;;;;;;1999.90;999.90;;;;;;;15.07;55.13;98024.56;15592604;28;20053;-63
2022/04/07 11:19:38;;;;;;;1999.90;999.90;;;;;;;15.07;53.85;97999.28;15588754;28;20145;-62
2022/04/07 11:27:33;;;;;;;1999.90;999.90;;;;;;;15.21;52.66;97982.19;15612386;28;20076;-62
2022/04/07 11:35:14;;;;;;;1999.90;999.90;;;;;;;15.55;52.45;97951.81;15639503;28;20045;-62
2022/04/07 11:42:50;;;;;;;1999.90;999.90;;;;;;;15.11;56.19;97938.25;15637479;28;20050;-61
2022/04/07 11:50:23;;;;;;;1999.90;999.90;;;;;;;14.79;57.15;97922.78;15612122;28;20054;-61
2022/04/07 11:57:58;;;;;;;1999.90;999.90;;;;;;;14.44;58.58;97904.53;15656675;28;20537;-61
2022/04/07 12:05:36;;;;;;;1999.90;999.90;;;;;;;13.88;61.81;97892.25;15615938;28;20070;-59
2022/04/07 12:13:10;;;;;;;1999.90;999.90;;;;;;;13.69;63.46;97872.09;15602298;28;20060;-61
2022/04/07 12:20:43;;;;;;;1999.90;999.90;;;;;;;13.46;66.54;97856.00;15597707;28;20049;-61
2022/04/07 12:28:16;;;;;;;;;;;;;;;13.29;67.95;97845.84;15605154;28;20096;-59
2022/04/07 12:35:50;;;;;;;1999.90;999.90;;;;;;;13.60;66.91;97823.41;15623812;28;19929;-63
2022/04/07 12:43:43;;;;;;;1999.90;999.90;;;;;;;13.51;69.46;97818.31;15618717;28;20041;-62
2022/04/07 12:51:26;;;;;;;399.52;227.52;;;;;;;13.25;72.44;97780.72;15597208;28;20061;-63
2022/04/07 12:59:02;;;;;;;1012.10;504.73;;;;;;;13.63;69.75;97761.72;15601941;28;20510;-64
2022/04/07 13:06:37;;;;;;;1999.90;999.90;;;;;;;14.04;68.01;97729.78;15622492;28;20046;-64
2022/04/07 13:14:12;;;;;;;;;;;;;;;14.17;64.92;97702.69;15618676;28;20402;-64
2022/04/07 13:21:44;;;;;;;1999.90;999.90;;;;;;;14.53;62.13;97666.38;15619777;28;20354;-65
2022/04/07 13:29:18;;;;;;;1999.90;999.90;;;;;;;14.75;60.46;97661.06;15605249;28;20033;-64
2022/04/07 13:36:51;;;;;;;1999.90;999.90;;;;;;;14.23;63.82;97658.94;15631548;28;20053;-64
2022/04/07 13:44:26;;;;;;;1554.53;784.08;;;;;;;13.51;71.80;97648.25;15665741;28;20038;-64
2022/04/07 13:52:00;;;;;;;369.67;332.35;;;;;;;12.94;75.93;97637.19;15652969;28;20042;-66
2022/04/07 13:59:34;;;;;;;871.13;481.13;;;;;;;12.52;81.58;97778.41;15651179;28;20484;-66
2022/04/07 14:07:06;;;;;;;618.33;506.20;;;;;;;9.30;81.84;97820.09;15623919;28;20061;-66
2022/04/07 14:14:40;;;;;;;490.85;439.75;;;;;;;9.61;84.55;97835.25;15620804;28;20050;-67
2022/04/07 14:22:12;;;;;;;565.75;493.60;;;;;;;9.42;85.69;97835.63;15620295;28;20045;-65
2022/04/07 14:29:46;;;;;;;860.45;456.52;;;;;;;9.28;84.69;97846.72;15624153;28;20399;-65
2022/04/07 14:37:18;;;;;;;293.30;220.85;;;;;;;9.24;82.12;97830.00;15616764;28;20045;-65
2022/04/07 14:44:51;;;;;;;649.50;506.80;;;;;;;9.13;80.93;97793.03;15667855;28;20055;-65
2022/04/07 14:52:24;;;;;;;;;;;;;;;9.43;78.96;97753.72;15638742;28;20510;-63
2022/04/07 14:59:58;;;;;;;427.02;395.40;;;;;;;9.61;78.84;97720.34;15618333;28;19921;-66
2022/04/07 15:07:30;;;;;;;468.27;432.73;;;;;;;10.67;78.14;97724.84;15642509;28;20486;-64
2022/04/07 15:15:04;;;;;;;463.08;417.60;;;;;;;10.66;76.58;97742.75;15660150;28;20069;-64
2022/04/07 15:22:36;;;;;;;441.65;406.65;;;;;;;10.81;76.21;97749.84;15677543;28;20387;-64
2022/04/07 15:30:15;;;;;;;403.77;370.10;;;;;;;11.17;75.33;97760.81;15662558;28;20072;-64
2022/04/07 15:37:47;;;;;;;276.70;250.20;;;;;;;11.46;73.02;97766.97;15595620;28;20383;-64
2022/04/07 15:45:21;;;;;;;1561.68;805.15;;;;;;;11.37;72.53;97786.22;15678089;28;20048;-64
2022/04/07 15:52:53;;;;;;;1999.90;999.90;;;;;;;11.18;71.54;97773.56;15577376;28;20046;-65
2022/04/07 16:00:27;;;;;;;1545.35;788.88;;;;;;;11.71;70.85;97775.97;15615058;28;20055;-65
2022/04/07 16:08:00;;;;;;;1999.90;999.90;;;;;;;11.43;70.29;97773.38;15624977;28;20042;-64
2022/04/07 16:15:33;;;;;;;1999.90;999.90;;;;;;;11.44;69.30;97777.75;15624333;28;20156;-65
2022/04/07 16:23:08;;;;;;;1999.90;999.90;;;;;;;11.87;68.30;97785.84;15620381;28;20045;-64
2022/04/07 16:30:44;;;;;;;1999.90;999.90;;;;;;;11.95;68.50;97790.16;15604809;28;20113;-63
2022/04/07 16:38:16;;;;;;;1999.90;999.90;;;;;;;11.70;66.90;97798.72;15615528;28;20523;-64
2022/04/07 16:45:50;;;;;;;1999.90;999.90;;;;;;;11.81;66.49;97791.88;15634974;28;20582;-64
2022/04/07 16:53:22;;;;;;;1999.90;999.90;;;;;;;11.74;65.82;97794.69;15598162;28;20048;-65
2022/04/07 17:00:55;;;;;;;1999.90;999.90;;;;;;;11.79;66.31;97787.88;15627936;28;20047;-67
2022/04/07 17:08:28;;;;;;;1999.90;999.90;;;;;;;11.55;67.44;97798.03;15631547;28;20490;-67
2022/04/07 17:16:01;;;;;;;1999.90;999.90;;;;;;;11.71;66.92;97792.72;15620802;28;20117;-65
2022/04/07 17:23:34;;;;;;;;;;;;;;;11.46;67.20;97804.09;15619944;28;20478;-64
2022/04/07 17:31:07;;;;;;;1999.90;999.90;;;;;;;11.30;67.38;97812.16;15624699;28;19928;-65
2022/04/07 17:38:39;;;;;;;;;;;;;;;11.42;65.86;97817.25;15609285;28;20075;-65
2022/04/07 17:46:14;;;;;;;1999.90;999.90;;;;;;;11.51;64.88;97822.41;15597779;28;19925;-64
2022/04/07 17:53:46;;;;;;;1999.90;999.90;;;;;;;11.25;61.21;97829.31;15595209;28;20043;-65
2022/04/07 18:01:19;;;;;;;1999.90;999.90;;;;;;;11.42;60.32;97825.63;15619115;28;20495;-63
2022/04/07 18:08:52;;;;;;;;;;;;;;;11.35;59.51;97848.00;15604709;28;20041;-64
2022/04/07 18:16:25;;;;;;;1999.90;999.90;;;;;;;11.01;59.66;97855.34;15605764;28;20110;-63
2022/04/07 18:23:58;;;;;;;1999.90;999.90;;;;;;;11.10;58.63;97880.84;15622912;28;20049;-62
2022/04/07 18:31:31;;;;;;;1999.90;999.90;;;;;;;11.18;58.06;97901.94;15616807;28;20486;-69
2022/04/07 18:39:05;;;;;;;1999.90;999.90;;;;;;;11.02;58.58;97901.59;15592088;28;20502;-65
2022/04/07 18:46:38;;;;;;;1999.90;999.90;;;;;;;11.08;57.89;97908.34;15605613;28;20093;-65
2022/04/07 18:54:10;;;;;;;;;;;;;;;11.21;57.67;97912.28;15609276;28;20661;-64
2022/04/07 19:01:44;;;;;;;1999.90;999.90;;;;;;;11.30;57.44;97934.97;15595697;28;19929;-65
2022/04/07 19:09:17;;;;;;;1999.90;999.90;;;;;;;11.20;56.43;97944.97;15604255;28;20449;-63
2022/04/07 19:16:50;;;;;;;1999.90;999.90;;;;;;;11.18;57.28;97988.44;15611621;28;20553;-64
2022/04/07 19:24:23;;;;;;;;;;;;;;;11.32;58.60;98007.94;15580048;28;20053;-60
2022/04/07 19:31:56;;;;;;;1999.90;999.90;;;;;;;10.94;59.96;98015.19;15605899;28;19946;-61
2022/04/07 19:39:28;;;;;;;1999.90;999.90;;;;;;;10.65;60.73;98011.66;15594533;28;20487;-62
2022/04/07 19:47:02;;;;;;;1999.90;999.90;;;;;;;10.24;62.40;98014.00;15580621;28;20047;-62
2022/04/07 19:54:35;;;;;;;1999.90;999.90;;;;;;;10.39;63.34;98041.47;15597526;28;20495;-59
2022/04/07 20:02:11;;;;;;;1999.90;999.90;;;;;;;9.81;67.21;98175.41;15614284;28;20037;-64
2022/04/07 20:09:43;;;;;;;569.55;303.85;;;;;;;8.25;74.38;98135.91;15614280;28;20046;-66
2022/04/07 20:17:17;;;;;;;317.90;280.42;;;;;;;7.96;76.29;98118.13;15613649;28;20073;-58
2022/04/07 20:24:51;;;;;;;;;;;;;;;8.09;75.37;98084.16;15578471;28;20053;-65
2022/04/07 20:32:25;;;;;;;1531.45;770.42;;;;;;;8.15;74.83;98079.06;15599475;28;19944;-68
2022/04/07 20:40:00;;;;;;;479.23;347.77;;;;;;;7.93;74.97;98097.47;15598692;28;20060;-67
2022/04/07 20:47:45;;;;;;;1542.65;775.85;;;;;;;8.31;74.01;98112.16;15842211;22;20107;31
2022/04/07 20:55:17;;;;;;;1085.63;546.67;;;;;;;8.19;74.04;98104.09;15425761;28;20043;-66
2022/04/07 21:02:51;;;;;;;1999.90;999.90;;;;;;;8.53;72.09;98104.84;15426363;28;20073;-65
2022/04/07 21:10:24;;;;;;;1999.90;999.90;;;;;;;8.48;71.73;98111.56;15472947;28;20452;-64
2022/04/07 21:17:57;;;;;;;1999.90;999.90;;;;;;;8.58;70.66;98112.84;15490260;28;20046;-64
2022/04/07 21:25:29;;;;;;;1999.90;999.90;;;;;;;8.63;70.11;98102.19;15458646;28;20109;-65
2022/04/07 21:33:03;;;;;;;1999.90;999.90;;;;;;;8.98;69.36;98106.47;15484500;28;20041;-65
2022/04/07 21:40:35;;;;;;;1999.90;999.90;;;;;;;8.91;69.06;98120.28;15445251;28;20053;-65
2022/04/07 21:48:09;;;;;;;1999.90;999.90;;;;;;;9.10;69.06;98119.25;15457778;28;20404;-64
2022/04/07 21:55:42;;;;;;;1999.90;999.90;;;;;;;8.64;73.62;98114.09;15456053;28;20110;-64
2022/04/07 22:03:15;;;;;;;114.45;105.13;;;;;;;8.46;75.63;98127.03;15479057;28;20094;-64
2022/04/07 22:10:48;;;;;;;287.33;258.73;;;;;;;8.54;75.36;98135.03;15459032;28;20042;-63
2022/04/07 22:18:22;;;;;;;1999.90;999.90;;;;;;;8.41;76.02;98133.72;15463577;28;20415;-62
2022/04/07 22:25:54;;;;;;;1999.90;999.90;;;;;;;8.37;75.58;98122.56;15476650;28;20046;-65
2022/04/07 22:33:28;;;;;;;247.98;200.60;;;;;;;8.26;75.37;98134.72;15479744;28;20447;-65
2022/04/07 22:41:00;;;;;;;1999.90;999.90;;;;;;;8.53;73.52;98113.19;15455363;28;20053;-62
2022/04/07 22:48:33;;;;;;;1999.90;999.90;;;;;;;8.57;73.04;98117.63;15439864;28;20093;-62
2022/04/07 22:56:05;;;;;;;1999.90;999.90;;;;;;;8.63;70.50;98123.63;15443540;28;20163;-64
2022/04/07 23:03:39;;;;;;;1999.90;999.90;;;;;;;9.04;68.37;98120.78;15468964;28;20527;-62
2022/04/07 23:11:12;;;;;;;1533.72;769.13;;;;;;;8.98;68.29;98109.25;15486855;28;20050;-64
2022/04/07 23:18:46;;;;;;;1999.90;999.90;;;;;;;9.10;66.77;98097.81;15457467;28;20050;-64
2022/04/07 23:26:19;;;;;;;1999.90;999.90;;;;;;;9.29;65.55;98093.97;15442883;28;20046;-64
2022/04/07 23:33:54;;;;;;;1999.90;999.90;;;;;;;9.38;64.01;98107.50;15438607;28;20070;-64
2022/04/07 23:41:26;;;;;;;1999.90;999.90;;;;;;;9.01;67.78;98122.38;15471032;28;20050;-63
2022/04/07 23:49:01;;;;;;;1999.90;999.90;;;;;;;9.12;67.69;98114.09;15480174;28;20389;-64
2022/04/07 23:56:33;;;;;;;1999.90;999.90;;;;;;;9.12;67.80;98136.34;15475290;28;20057;-63
